createdAt,value
2023-01-27T00:00:12.042Z,92.19
2023-01-27T00:01:11.954Z,93.08
2023-01-27T00:02:12.219Z,92.57
2023-01-27T00:03:12.436Z,92.05
2023-01-27T00:04:12.695Z,92.15
2023-01-27T00:05:12.968Z,91.84
2023-01-27T00:06:13.280Z,91.88
2023-01-27T00:07:13.476Z,91.99
2023-01-27T00:08:13.768Z,92.15
2023-01-27T00:09:14.015Z,92.36
2023-01-27T00:10:14.601Z,92.15
2023-01-27T00:11:14.603Z,92.05
2023-01-27T00:12:14.777Z,91.74
2023-01-27T00:13:15.042Z,91.84
2023-01-27T00:14:15.298Z,91.11
2023-01-27T00:15:15.550Z,91.84
2023-01-27T00:16:15.933Z,91.01
2023-01-27T00:17:16.041Z,91.11
2023-01-27T00:18:16.561Z,91.32
2023-01-27T00:19:16.538Z,91.22
2023-01-27T00:20:16.799Z,91.42
2023-01-27T00:21:17.051Z,91.01
2023-01-27T00:22:17.328Z,91.01
2023-01-27T00:23:17.592Z,91.22
2023-01-27T00:24:17.865Z,91.01
2023-01-27T00:25:18.057Z,91.01
2023-01-27T00:26:18.403Z,90.80
2023-01-27T00:27:18.597Z,90.60
2023-01-27T00:28:18.849Z,90.80
2023-01-27T00:29:19.113Z,90.45
2023-01-27T00:30:19.373Z,90.39
2023-01-27T00:31:19.759Z,90.29
2023-01-27T00:32:19.902Z,89.87
2023-01-27T00:33:20.169Z,89.83
2023-01-27T00:34:20.434Z,89.42
2023-01-27T00:35:20.693Z,89.56
2023-01-27T00:36:20.990Z,89.52
2023-01-27T00:37:21.204Z,89.46
2023-01-27T00:38:21.464Z,89.42
2023-01-27T00:39:21.728Z,89.83
2023-01-27T00:40:21.988Z,89.62
2023-01-27T00:41:22.325Z,89.04
2023-01-27T00:42:22.504Z,88.80
2023-01-27T00:43:22.752Z,88.49
2023-01-27T00:44:23.014Z,88.80
2023-01-27T00:45:23.290Z,88.90
2023-01-27T00:46:23.680Z,89.22
2023-01-27T00:47:23.822Z,88.70
2023-01-27T00:48:24.064Z,88.90
2023-01-27T00:49:24.293Z,88.90
2023-01-27T00:50:24.643Z,88.84
2023-01-27T00:51:24.795Z,89.01
2023-01-27T00:52:25.007Z,88.80
2023-01-27T00:53:25.241Z,88.39
2023-01-27T00:54:25.472Z,88.22
2023-01-27T00:55:25.824Z,88.07
2023-01-27T00:56:25.958Z,88.18
2023-01-27T00:57:26.247Z,89.01
2023-01-27T00:58:26.406Z,88.70
2023-01-27T00:59:26.636Z,89.42
2023-01-27T01:00:26.938Z,89.73
2023-01-27T01:01:27.129Z,89.73
2023-01-27T01:02:27.336Z,89.52
2023-01-27T01:03:27.573Z,89.62
2023-01-27T01:04:27.789Z,89.73
2023-01-27T01:05:28.037Z,90.04
2023-01-27T01:06:28.249Z,89.62
2023-01-27T01:07:28.471Z,89.73
2023-01-27T01:08:28.705Z,89.52
2023-01-27T01:09:28.974Z,89.32
2023-01-27T01:10:29.170Z,89.67
2023-01-27T01:11:29.414Z,89.62
2023-01-27T01:12:29.609Z,89.52
2023-01-27T01:13:29.828Z,89.62
2023-01-27T01:14:30.074Z,89.42
2023-01-27T01:15:30.257Z,89.83
2023-01-27T01:16:30.544Z,89.83
2023-01-27T01:17:30.712Z,89.62
2023-01-27T01:18:30.943Z,89.42
2023-01-27T01:19:31.244Z,89.62
2023-01-27T01:20:31.435Z,89.83
2023-01-27T01:21:31.662Z,89.94
2023-01-27T01:22:31.881Z,89.11
2023-01-27T01:23:32.105Z,89.83
2023-01-27T01:24:32.384Z,89.52
2023-01-27T01:25:32.549Z,90.50
2023-01-27T01:26:32.789Z,90.35
2023-01-27T01:27:32.996Z,90.14
2023-01-27T01:28:33.227Z,89.83
2023-01-27T01:29:33.480Z,89.94
2023-01-27T01:30:33.701Z,90.25
2023-01-27T01:31:34.009Z,90.04
2023-01-27T01:32:34.240Z,90.39
2023-01-27T01:33:34.395Z,90.29
2023-01-27T01:34:34.783Z,90.39
2023-01-27T01:35:34.912Z,90.77
2023-01-27T01:36:35.185Z,90.77
2023-01-27T01:37:35.452Z,90.77
2023-01-27T01:38:35.730Z,90.29
2023-01-27T01:39:36.051Z,90.35
2023-01-27T01:40:36.252Z,89.83
2023-01-27T01:41:36.533Z,90.45
2023-01-27T01:42:36.758Z,90.45
2023-01-27T01:43:37.011Z,90.14
2023-01-27T01:44:37.336Z,90.60
2023-01-27T01:45:37.539Z,90.50
2023-01-27T01:46:38.021Z,90.70
2023-01-27T01:47:38.110Z,90.70
2023-01-27T01:48:38.317Z,90.29
2023-01-27T01:49:38.594Z,90.50
2023-01-27T01:50:38.813Z,90.70
2023-01-27T01:51:39.124Z,90.60
2023-01-27T01:52:39.333Z,90.29
2023-01-27T01:53:39.590Z,90.50
2023-01-27T01:54:39.850Z,90.29
2023-01-27T01:55:40.110Z,90.60
2023-01-27T01:56:40.437Z,90.70
2023-01-27T01:57:40.655Z,90.60
2023-01-27T01:58:40.922Z,90.50
2023-01-27T01:59:41.193Z,91.01
2023-01-27T02:00:41.468Z,91.22
2023-01-27T02:01:41.834Z,91.42
2023-01-27T02:02:42.101Z,91.11
2023-01-27T02:03:42.284Z,90.91
2023-01-27T02:04:42.580Z,91.05
2023-01-27T02:05:42.816Z,91.01
2023-01-27T02:06:43.095Z,91.22
2023-01-27T02:07:43.348Z,91.22
2023-01-27T02:08:43.548Z,91.36
2023-01-27T02:09:43.780Z,91.01
2023-01-27T02:10:44.027Z,91.32
2023-01-27T02:11:44.311Z,91.36
2023-01-27T02:12:44.595Z,91.42
2023-01-27T02:13:44.778Z,91.32
2023-01-27T02:14:45.029Z,91.42
2023-01-27T02:15:45.259Z,91.74
2023-01-27T02:16:45.563Z,91.84
2023-01-27T02:17:45.943Z,91.63
2023-01-27T02:18:46.025Z,91.78
2023-01-27T02:19:46.306Z,91.63
2023-01-27T02:20:46.598Z,91.53
2023-01-27T02:21:48.782Z,92.30
2023-01-27T02:22:47.170Z,92.09
2023-01-27T02:23:47.417Z,92.15
2023-01-27T02:24:47.730Z,92.19
2023-01-27T02:25:47.966Z,92.19
2023-01-27T02:26:48.253Z,92.40
2023-01-27T02:27:48.494Z,92.91
2023-01-27T02:28:48.794Z,92.19
2023-01-27T02:29:49.027Z,92.40
2023-01-27T02:30:49.424Z,91.47
2023-01-27T02:31:49.917Z,92.09
2023-01-27T02:32:49.841Z,92.09
2023-01-27T02:33:50.119Z,92.30
2023-01-27T02:34:50.396Z,92.30
2023-01-27T02:35:50.682Z,92.09
2023-01-27T02:36:51.189Z,93.02
2023-01-27T02:37:51.266Z,92.40
2023-01-27T02:38:51.534Z,93.02
2023-01-27T02:39:51.817Z,93.12
2023-01-27T02:40:52.090Z,94.10
2023-01-27T02:41:52.431Z,94.37
2023-01-27T02:42:52.663Z,93.58
2023-01-27T02:43:52.957Z,94.06
2023-01-27T02:44:53.278Z,94.62
2023-01-27T02:45:53.594Z,94.62
2023-01-27T02:46:53.820Z,94.72
2023-01-27T02:47:54.089Z,94.31
2023-01-27T02:48:54.555Z,94.62
2023-01-27T02:49:54.629Z,94.26
2023-01-27T02:50:54.900Z,93.64
2023-01-27T02:51:55.161Z,94.06
2023-01-27T02:52:55.425Z,94.06
2023-01-27T02:53:55.743Z,93.95
2023-01-27T02:54:55.959Z,94.16
2023-01-27T02:55:56.229Z,95.03
2023-01-27T02:56:56.675Z,94.26
2023-01-27T02:57:56.784Z,94.10
2023-01-27T02:58:57.067Z,94.20
2023-01-27T02:59:57.319Z,93.89
2023-01-27T03:00:57.589Z,94.31
2023-01-27T03:01:58.018Z,94.72
2023-01-27T03:02:58.127Z,94.78
2023-01-27T03:03:58.408Z,94.93
2023-01-27T03:04:58.702Z,94.20
2023-01-27T03:05:58.978Z,94.20
2023-01-27T03:06:59.301Z,95.24
2023-01-27T03:07:59.525Z,94.41
2023-01-27T03:08:59.810Z,94.41
2023-01-27T03:10:00.101Z,95.03
2023-01-27T03:11:00.351Z,95.65
2023-01-27T03:12:00.805Z,96.17
2023-01-27T03:13:00.888Z,96.48
2023-01-27T03:14:01.153Z,96.48
2023-01-27T03:15:01.422Z,96.37
2023-01-27T03:16:01.822Z,96.58
2023-01-27T03:17:02.026Z,96.73
2023-01-27T03:18:02.264Z,96.37
2023-01-27T03:19:02.546Z,96.58
2023-01-27T03:20:02.806Z,96.58
2023-01-27T03:21:03.088Z,96.42
2023-01-27T03:22:03.492Z,96.89
2023-01-27T03:23:03.644Z,96.62
2023-01-27T03:24:04.009Z,96.52
2023-01-27T03:25:04.225Z,96.62
2023-01-27T03:26:04.521Z,96.83
2023-01-27T03:27:04.855Z,96.62
2023-01-27T03:28:05.084Z,96.62
2023-01-27T03:29:05.360Z,96.62
2023-01-27T03:30:05.823Z,96.52
2023-01-27T03:31:06.055Z,96.52
2023-01-27T03:32:06.182Z,96.52
2023-01-27T03:33:06.464Z,96.62
2023-01-27T03:34:06.736Z,96.31
2023-01-27T03:35:07.159Z,96.42
2023-01-27T03:36:07.298Z,96.52
2023-01-27T03:37:07.570Z,96.52
2023-01-27T03:38:07.832Z,96.52
2023-01-27T03:39:08.094Z,96.52
2023-01-27T03:40:08.634Z,96.52
2023-01-27T03:41:08.633Z,96.62
2023-01-27T03:42:08.941Z,96.52
2023-01-27T03:43:09.189Z,96.52
2023-01-27T03:44:09.474Z,96.73
2023-01-27T03:45:09.978Z,97.45
2023-01-27T03:46:10.091Z,96.94
2023-01-27T03:47:10.328Z,97.25
2023-01-27T03:48:10.581Z,96.83
2023-01-27T03:49:10.887Z,97.25
2023-01-27T03:50:11.133Z,97.35
2023-01-27T03:51:11.403Z,97.77
2023-01-27T03:52:11.675Z,97.77
2023-01-27T03:53:11.934Z,97.77
2023-01-27T03:54:12.319Z,97.77
2023-01-27T03:55:12.807Z,98.49
2023-01-27T03:56:12.759Z,97.66
2023-01-27T03:57:13.028Z,97.91
2023-01-27T03:58:13.271Z,97.97
2023-01-27T03:59:13.587Z,98.02
2023-01-27T04:00:13.839Z,97.81
2023-01-27T04:01:14.161Z,98.08
2023-01-27T04:02:14.423Z,97.87
2023-01-27T04:03:14.672Z,98.08
2023-01-27T04:04:14.943Z,98.43
2023-01-27T04:05:15.749Z,98.49
2023-01-27T04:06:15.511Z,98.18
2023-01-27T04:07:15.820Z,98.43
2023-01-27T04:08:16.063Z,98.54
2023-01-27T04:09:16.346Z,98.08
2023-01-27T04:10:16.627Z,98.22
2023-01-27T04:11:16.891Z,97.81
2023-01-27T04:12:17.585Z,97.91
2023-01-27T04:13:17.441Z,98.54
2023-01-27T04:14:17.732Z,98.33
2023-01-27T04:15:18.003Z,98.12
2023-01-27T04:16:18.285Z,97.81
2023-01-27T04:17:18.615Z,98.64
2023-01-27T04:18:18.855Z,98.60
2023-01-27T04:19:19.134Z,98.43
2023-01-27T04:20:19.418Z,98.64
2023-01-27T04:21:19.718Z,98.64
2023-01-27T04:22:20.035Z,98.64
2023-01-27T04:23:20.244Z,97.71
2023-01-27T04:24:20.564Z,97.91
2023-01-27T04:25:20.780Z,97.71
2023-01-27T04:26:21.043Z,97.77
2023-01-27T04:27:21.469Z,98.60
2023-01-27T04:28:37.337Z,98.33
2023-01-27T04:29:21.867Z,98.54
2023-01-27T04:30:22.148Z,98.39
2023-01-27T04:31:22.475Z,99.37
2023-01-27T04:32:22.775Z,98.85
2023-01-27T04:33:22.987Z,99.16
2023-01-27T04:34:23.259Z,98.91
2023-01-27T04:35:27.850Z,98.85
2023-01-27T04:36:23.813Z,98.60
2023-01-27T04:37:24.097Z,98.64
2023-01-27T04:38:24.343Z,98.54
2023-01-27T04:39:24.621Z,99.16
2023-01-27T04:40:24.902Z,99.05
2023-01-27T04:41:25.181Z,99.16
2023-01-27T04:42:25.536Z,99.78
2023-01-27T04:43:25.728Z,99.26
2023-01-27T04:44:26.370Z,99.26
2023-01-27T04:45:26.279Z,99.37
2023-01-27T04:46:26.508Z,98.95
2023-01-27T04:47:26.910Z,99.37
2023-01-27T04:48:27.043Z,98.85
2023-01-27T04:49:27.453Z,99.16
2023-01-27T04:50:27.575Z,99.37
2023-01-27T04:51:27.843Z,98.95
2023-01-27T04:52:28.155Z,98.85
2023-01-27T04:53:28.375Z,99.37
2023-01-27T04:54:28.662Z,99.26
2023-01-27T04:55:28.956Z,99.68
2023-01-27T04:56:29.210Z,99.78
2023-01-27T04:57:29.522Z,99.78
2023-01-27T04:58:29.780Z,98.95
2023-01-27T04:59:30.043Z,99.26
2023-01-27T05:00:30.292Z,99.37
2023-01-27T05:01:30.598Z,99.16
2023-01-27T05:02:30.885Z,99.47
2023-01-27T05:03:31.101Z,99.47
2023-01-27T05:04:31.365Z,99.99
2023-01-27T05:05:31.631Z,99.57
2023-01-27T05:06:31.910Z,99.57
2023-01-27T05:07:32.375Z,99.99
2023-01-27T05:08:32.429Z,99.47
2023-01-27T05:09:32.722Z,99.78
2023-01-27T05:10:32.971Z,99.57
2023-01-27T05:11:33.255Z,99.16
2023-01-27T05:12:33.561Z,99.26
2023-01-27T05:13:33.786Z,99.37
2023-01-27T05:14:34.043Z,99.26
2023-01-27T05:15:34.341Z,99.16
2023-01-27T05:16:34.556Z,98.85
2023-01-27T05:17:34.746Z,98.85
2023-01-27T05:18:34.980Z,99.16
2023-01-27T05:19:35.255Z,98.85
2023-01-27T05:20:35.450Z,99.05
2023-01-27T05:21:35.693Z,98.64
2023-01-27T05:22:35.933Z,98.85
2023-01-27T05:23:36.178Z,98.85
2023-01-27T05:24:36.489Z,98.85
2023-01-27T05:25:36.633Z,98.64
2023-01-27T05:26:36.874Z,98.85
2023-01-27T05:27:37.131Z,99.26
2023-01-27T05:28:37.345Z,98.54
2023-01-27T05:29:37.749Z,98.54
2023-01-27T05:30:37.883Z,99.26
2023-01-27T05:31:38.284Z,98.64
2023-01-27T05:32:38.328Z,99.16
2023-01-27T05:33:38.571Z,99.26
2023-01-27T05:34:38.837Z,99.05
2023-01-27T05:35:39.048Z,98.85
2023-01-27T05:36:39.289Z,99.16
2023-01-27T05:37:39.529Z,98.54
2023-01-27T05:38:39.768Z,98.64
2023-01-27T05:39:40.048Z,99.37
2023-01-27T05:40:40.261Z,98.43
2023-01-27T05:41:40.494Z,98.74
2023-01-27T05:42:40.749Z,98.43
2023-01-27T05:43:40.954Z,98.64
2023-01-27T05:44:41.258Z,98.64
2023-01-27T05:45:41.433Z,98.54
2023-01-27T05:46:41.732Z,98.54
2023-01-27T05:47:41.923Z,98.64
2023-01-27T05:48:42.164Z,98.85
2023-01-27T05:49:42.456Z,98.54
2023-01-27T05:50:42.655Z,98.64
2023-01-27T05:51:42.897Z,98.02
2023-01-27T05:52:43.155Z,98.85
2023-01-27T05:53:43.423Z,98.64
2023-01-27T05:54:43.763Z,97.91
2023-01-27T05:55:43.921Z,98.64
2023-01-27T05:56:44.158Z,98.54
2023-01-27T05:57:44.454Z,98.64
2023-01-27T05:58:44.701Z,98.22
2023-01-27T05:59:44.965Z,97.71
2023-01-27T06:00:45.266Z,98.02
2023-01-27T06:01:45.528Z,98.12
2023-01-27T06:02:45.648Z,97.81
2023-01-27T06:03:45.891Z,97.71
2023-01-27T06:04:46.193Z,97.60
2023-01-27T06:05:46.326Z,97.71
2023-01-27T06:06:46.553Z,98.02
2023-01-27T06:07:46.813Z,98.12
2023-01-27T06:08:47.063Z,97.71
2023-01-27T06:09:47.314Z,97.29
2023-01-27T06:10:47.534Z,98.02
2023-01-27T06:11:47.771Z,97.39
2023-01-27T06:12:48.046Z,97.39
2023-01-27T06:13:48.304Z,96.88
2023-01-27T06:14:48.529Z,97.39
2023-01-27T06:15:48.775Z,97.35
2023-01-27T06:16:49.276Z,97.60
2023-01-27T06:17:50.947Z,97.39
2023-01-27T06:18:49.547Z,97.50
2023-01-27T06:19:49.773Z,97.71
2023-01-27T06:20:50.015Z,97.09
2023-01-27T06:21:50.405Z,97.09
2023-01-27T06:22:50.515Z,96.98
2023-01-27T06:23:50.797Z,97.19
2023-01-27T06:24:50.950Z,97.09
2023-01-27T06:25:51.201Z,96.98
2023-01-27T06:26:51.560Z,97.29
2023-01-27T06:27:51.744Z,96.88
2023-01-27T06:28:51.973Z,96.47
2023-01-27T06:29:52.223Z,96.15
2023-01-27T06:30:52.508Z,96.15
2023-01-27T06:31:52.778Z,96.57
2023-01-27T06:32:53.004Z,96.26
2023-01-27T06:33:53.349Z,94.49
2023-01-27T06:34:53.505Z,95.53
2023-01-27T06:35:53.759Z,96.15
2023-01-27T06:36:54.037Z,96.78
2023-01-27T06:37:54.255Z,96.78
2023-01-27T06:38:54.542Z,96.47
2023-01-27T06:39:54.751Z,96.78
2023-01-27T06:40:55.011Z,96.57
2023-01-27T06:41:55.275Z,96.78
2023-01-27T06:42:55.575Z,96.67
2023-01-27T06:43:55.844Z,96.36
2023-01-27T06:44:56.077Z,96.67
2023-01-27T06:45:56.353Z,96.57
2023-01-27T06:46:56.587Z,96.47
2023-01-27T06:47:56.838Z,96.78
2023-01-27T06:48:57.446Z,96.67
2023-01-27T06:49:57.367Z,96.57
2023-01-27T06:50:57.624Z,96.47
2023-01-27T06:51:57.881Z,96.57
2023-01-27T06:52:58.125Z,95.74
2023-01-27T06:53:58.421Z,95.12
2023-01-27T06:54:58.609Z,96.36
2023-01-27T06:55:58.838Z,95.53
2023-01-27T06:56:59.097Z,95.32
2023-01-27T06:57:59.361Z,96.26
2023-01-27T06:58:59.626Z,96.15
2023-01-27T06:59:59.848Z,96.15
2023-01-27T07:01:00.150Z,95.22
2023-01-27T07:02:00.361Z,95.32
2023-01-27T07:03:00.613Z,95.22
2023-01-27T07:04:00.905Z,95.32
2023-01-27T07:05:01.100Z,95.32
2023-01-27T07:06:01.339Z,95.32
2023-01-27T07:07:01.589Z,95.22
2023-01-27T07:08:01.850Z,94.08
2023-01-27T07:09:02.116Z,94.49
2023-01-27T07:10:02.343Z,94.49
2023-01-27T07:11:02.590Z,93.98
2023-01-27T07:12:02.835Z,94.08
2023-01-27T07:13:03.114Z,93.98
2023-01-27T07:14:03.375Z,93.98
2023-01-27T07:15:03.607Z,94.81
2023-01-27T07:16:03.885Z,94.70
2023-01-27T07:17:04.139Z,94.39
2023-01-27T07:18:04.490Z,93.77
2023-01-27T07:19:04.685Z,93.46
2023-01-27T07:20:04.948Z,93.40
2023-01-27T07:21:05.202Z,94.43
2023-01-27T07:22:05.461Z,93.87
2023-01-27T07:23:05.833Z,93.15
2023-01-27T07:24:06.007Z,93.46
2023-01-27T07:25:06.238Z,93.98
2023-01-27T07:26:19.246Z,94.18
2023-01-27T07:27:06.754Z,93.56
2023-01-27T07:28:07.074Z,93.15
2023-01-27T07:29:07.260Z,93.04
2023-01-27T07:30:07.584Z,92.53
2023-01-27T07:31:07.904Z,93.15
2023-01-27T07:32:08.105Z,92.53
2023-01-27T07:33:08.301Z,93.15
2023-01-27T07:34:08.560Z,93.04
2023-01-27T07:35:08.866Z,92.74
2023-01-27T07:36:09.091Z,94.08
2023-01-27T07:37:09.356Z,94.70
2023-01-27T07:38:09.611Z,93.87
2023-01-27T07:39:09.931Z,93.35
2023-01-27T07:40:10.132Z,93.77
2023-01-27T07:41:10.405Z,94.81
2023-01-27T07:42:10.679Z,94.18
2023-01-27T07:43:10.969Z,94.18
2023-01-27T07:44:11.245Z,93.98
2023-01-27T07:45:11.484Z,93.98
2023-01-27T07:46:11.789Z,94.54
2023-01-27T07:47:11.997Z,94.18
2023-01-27T07:48:12.267Z,94.39
2023-01-27T07:49:12.559Z,94.70
2023-01-27T07:50:13.157Z,94.39
2023-01-27T07:51:13.092Z,94.29
2023-01-27T07:52:13.327Z,94.39
2023-01-27T07:53:13.590Z,94.08
2023-01-27T07:54:13.860Z,94.60
2023-01-27T07:55:14.455Z,94.91
2023-01-27T07:56:14.420Z,94.39
2023-01-27T07:57:14.639Z,94.29
2023-01-27T07:58:14.928Z,95.12
2023-01-27T07:59:15.187Z,94.60
2023-01-27T08:00:15.821Z,95.12
2023-01-27T08:01:15.818Z,95.12
2023-01-27T08:02:15.991Z,95.43
2023-01-27T08:03:16.339Z,95.32
2023-01-27T08:04:16.538Z,95.64
2023-01-27T08:05:16.820Z,95.22
2023-01-27T08:06:17.128Z,95.07
2023-01-27T08:07:17.325Z,95.22
2023-01-27T08:08:17.596Z,96.52
2023-01-27T08:09:17.878Z,95.22
2023-01-27T08:10:18.111Z,95.32
2023-01-27T08:11:18.499Z,95.39
2023-01-27T08:12:18.636Z,95.80
2023-01-27T08:13:18.960Z,95.07
2023-01-27T08:14:19.161Z,95.49
2023-01-27T08:15:19.516Z,95.28
2023-01-27T08:16:19.728Z,94.97
2023-01-27T08:17:19.969Z,95.07
2023-01-27T08:18:20.213Z,95.80
2023-01-27T08:19:20.500Z,96.21
2023-01-27T08:20:20.764Z,96.11
2023-01-27T08:21:21.043Z,96.52
2023-01-27T08:22:21.343Z,96.01
2023-01-27T08:23:21.756Z,96.21
2023-01-27T08:24:21.932Z,95.80
2023-01-27T08:25:22.132Z,96.11
2023-01-27T08:26:22.384Z,95.65
2023-01-27T08:27:22.663Z,95.18
2023-01-27T08:28:22.993Z,94.14
2023-01-27T08:29:23.182Z,94.97
2023-01-27T08:30:23.479Z,95.28
2023-01-27T08:31:23.700Z,95.18
2023-01-27T08:32:23.872Z,95.39
2023-01-27T08:33:24.144Z,95.28
2023-01-27T08:34:24.380Z,95.28
2023-01-27T08:35:24.597Z,95.39
2023-01-27T08:36:24.845Z,94.35
2023-01-27T08:37:25.045Z,94.14
2023-01-27T08:38:25.327Z,94.24
2023-01-27T08:39:25.527Z,95.18
2023-01-27T08:40:25.817Z,94.14
2023-01-27T08:41:25.992Z,94.24
2023-01-27T08:42:26.495Z,94.76
2023-01-27T08:43:26.632Z,94.62
2023-01-27T08:44:26.707Z,94.56
2023-01-27T08:45:26.941Z,94.93
2023-01-27T08:46:27.201Z,94.76
2023-01-27T08:47:27.411Z,95.03
2023-01-27T08:48:27.765Z,94.93
2023-01-27T08:49:27.859Z,95.24
2023-01-27T08:50:28.076Z,94.31
2023-01-27T08:51:28.293Z,94.93
2023-01-27T08:52:28.530Z,94.97
2023-01-27T08:53:28.786Z,95.75
2023-01-27T08:54:28.977Z,96.17
2023-01-27T08:55:29.212Z,95.65
2023-01-27T08:56:29.453Z,94.62
2023-01-27T08:57:29.698Z,94.41
2023-01-27T08:58:30.005Z,94.10
2023-01-27T08:59:30.248Z,94.93
2023-01-27T09:00:30.445Z,94.82
2023-01-27T09:01:30.761Z,94.82
2023-01-27T09:02:30.937Z,94.20
2023-01-27T09:03:31.199Z,94.10
2023-01-27T09:04:31.512Z,94.51
2023-01-27T09:05:31.696Z,94.41
2023-01-27T09:06:31.963Z,93.68
2023-01-27T09:07:32.232Z,94.47
2023-01-27T09:08:32.491Z,94.68
2023-01-27T09:09:32.812Z,93.27
2023-01-27T09:10:33.031Z,93.43
2023-01-27T09:11:33.293Z,92.61
2023-01-27T09:12:33.556Z,92.81
2023-01-27T09:13:34.013Z,91.47
2023-01-27T09:14:34.106Z,92.91
2023-01-27T09:15:34.347Z,91.99
2023-01-27T09:16:34.693Z,91.67
2023-01-27T09:17:34.880Z,91.57
2023-01-27T09:18:35.098Z,92.50
2023-01-27T09:19:35.343Z,93.12
2023-01-27T09:20:35.591Z,92.30
2023-01-27T09:21:35.835Z,91.53
2023-01-27T09:22:36.120Z,91.88
2023-01-27T09:23:36.318Z,91.32
2023-01-27T09:24:36.565Z,91.05
2023-01-27T09:25:36.808Z,90.80
2023-01-27T09:26:37.058Z,90.60
2023-01-27T09:27:39.927Z,90.64
2023-01-27T09:28:37.574Z,90.95
2023-01-27T09:29:37.783Z,90.99
2023-01-27T09:30:40.783Z,90.37
2023-01-27T09:31:38.409Z,91.41
2023-01-27T09:32:38.626Z,91.51
2023-01-27T09:33:38.688Z,91.09
2023-01-27T09:34:38.916Z,91.36
2023-01-27T09:35:39.143Z,91.30
2023-01-27T09:36:39.359Z,90.23
2023-01-27T09:37:39.645Z,90.78
2023-01-27T09:38:39.789Z,90.78
2023-01-27T09:39:39.998Z,91.09
2023-01-27T09:40:40.223Z,91.09
2023-01-27T09:41:40.437Z,90.89
2023-01-27T09:42:40.701Z,90.47
2023-01-27T09:43:40.894Z,90.89
2023-01-27T09:44:41.172Z,91.30
2023-01-27T09:45:41.302Z,91.05
2023-01-27T09:46:41.511Z,91.16
2023-01-27T09:47:41.764Z,91.05
2023-01-27T09:48:41.977Z,91.36
2023-01-27T09:49:42.145Z,91.26
2023-01-27T09:50:42.366Z,91.57
2023-01-27T09:51:42.581Z,91.32
2023-01-27T09:52:47.764Z,91.11
2023-01-27T09:53:43.044Z,89.98
2023-01-27T09:54:43.221Z,90.08
2023-01-27T09:55:43.457Z,90.39
2023-01-27T09:56:43.668Z,90.29
2023-01-27T09:57:43.947Z,89.77
2023-01-27T09:58:44.218Z,89.46
2023-01-27T09:59:44.647Z,89.04
2023-01-27T10:00:44.629Z,89.62
2023-01-27T10:01:44.906Z,89.22
2023-01-27T10:02:45.075Z,89.22
2023-01-27T10:03:45.318Z,88.18
2023-01-27T10:04:45.777Z,88.32
2023-01-27T10:05:45.796Z,88.22
2023-01-27T10:06:46.029Z,89.04
2023-01-27T10:07:46.267Z,89.11
2023-01-27T10:08:46.492Z,88.74
2023-01-27T10:09:46.766Z,87.70
2023-01-27T10:10:46.963Z,88.22
2023-01-27T10:11:47.206Z,88.22
2023-01-27T10:12:47.422Z,88.07
2023-01-27T10:13:47.732Z,88.28
2023-01-27T10:14:48.120Z,88.18
2023-01-27T10:15:48.236Z,88.64
2023-01-27T10:16:48.340Z,88.80
2023-01-27T10:17:48.581Z,88.76
2023-01-27T10:18:48.819Z,88.14
2023-01-27T10:19:49.196Z,88.14
2023-01-27T10:20:49.514Z,87.52
2023-01-27T10:21:49.857Z,87.89
2023-01-27T10:22:49.781Z,87.21
2023-01-27T10:23:50.181Z,87.10
2023-01-27T10:24:50.466Z,87.17
2023-01-27T10:25:50.630Z,85.76
2023-01-27T10:26:50.877Z,85.35
2023-01-27T10:27:51.023Z,86.49
2023-01-27T10:28:51.298Z,87.31
2023-01-27T10:29:51.503Z,87.21
2023-01-27T10:30:51.848Z,86.18
2023-01-27T10:31:52.282Z,86.07
2023-01-27T10:32:52.224Z,85.45
2023-01-27T10:33:52.479Z,85.76
2023-01-27T10:34:52.768Z,86.73
2023-01-27T10:35:52.926Z,86.49
2023-01-27T10:36:53.164Z,86.42
2023-01-27T10:37:53.391Z,87.15
2023-01-27T10:38:53.721Z,86.38
2023-01-27T10:39:53.871Z,86.11
2023-01-27T10:40:54.116Z,86.69
2023-01-27T10:41:54.370Z,86.18
2023-01-27T10:42:54.610Z,85.86
2023-01-27T10:43:54.905Z,86.11
2023-01-27T10:44:55.091Z,86.63
2023-01-27T10:45:55.397Z,85.76
2023-01-27T10:46:55.643Z,85.91
2023-01-27T10:47:55.794Z,86.69
2023-01-27T10:48:56.060Z,86.24
2023-01-27T10:49:56.270Z,86.49
2023-01-27T10:50:56.503Z,85.76
2023-01-27T10:51:56.752Z,85.83
2023-01-27T10:52:56.987Z,85.55
2023-01-27T10:53:57.262Z,85.72
2023-01-27T10:54:57.454Z,85.31
2023-01-27T10:55:57.692Z,84.79
2023-01-27T10:56:57.899Z,84.07
2023-01-27T10:57:58.150Z,84.38
2023-01-27T10:58:58.354Z,83.45
2023-01-27T11:00:23.658Z,84.89
2023-01-27T11:01:20.314Z,85.10
2023-01-27T11:01:59.059Z,84.07
2023-01-27T11:02:59.238Z,83.34
2023-01-27T11:03:59.552Z,84.07
2023-01-27T11:04:59.723Z,84.59
2023-01-27T11:05:59.949Z,84.28
2023-01-27T11:07:00.177Z,82.62
2023-01-27T11:08:00.408Z,83.76
2023-01-27T11:09:00.888Z,83.55
2023-01-27T11:10:00.876Z,83.25
2023-01-27T11:11:01.151Z,83.14
2023-01-27T11:12:01.352Z,84.07
2023-01-27T11:13:01.582Z,82.73
2023-01-27T11:14:01.850Z,83.55
2023-01-27T11:15:02.081Z,83.45
2023-01-27T11:16:02.282Z,83.55
2023-01-27T11:17:02.564Z,83.76
2023-01-27T11:18:02.898Z,82.42
2023-01-27T11:19:02.988Z,81.28
2023-01-27T11:20:03.218Z,82.31
2023-01-27T11:21:03.474Z,83.04
2023-01-27T11:22:08.829Z,83.41
2023-01-27T11:23:03.933Z,82.31
2023-01-27T11:24:04.129Z,83.55
2023-01-27T11:25:04.321Z,82.69
2023-01-27T11:26:04.507Z,84.44
2023-01-27T11:27:04.714Z,82.62
2023-01-27T11:28:04.981Z,82.93
2023-01-27T11:29:05.166Z,83.10
2023-01-27T11:30:05.390Z,83.83
2023-01-27T11:31:05.658Z,83.14
2023-01-27T11:32:05.863Z,83.76
2023-01-27T11:33:06.073Z,82.62
2023-01-27T11:34:06.155Z,81.56
2023-01-27T11:35:06.361Z,80.76
2023-01-27T11:36:06.555Z,80.56
2023-01-27T11:37:06.767Z,81.80
2023-01-27T11:38:15.486Z,82.31
2023-01-27T11:39:07.182Z,82.62
2023-01-27T11:40:07.418Z,81.59
2023-01-27T11:41:07.615Z,82.00
2023-01-27T11:42:07.838Z,82.04
2023-01-27T11:43:08.196Z,82.15
2023-01-27T11:44:08.281Z,82.35
2023-01-27T11:45:08.467Z,81.21
2023-01-27T11:46:08.738Z,81.80
2023-01-27T11:47:08.878Z,82.35
2023-01-27T11:48:09.168Z,82.73
2023-01-27T11:49:09.302Z,82.97
2023-01-27T11:50:09.510Z,82.00
2023-01-27T11:51:09.780Z,82.15
2023-01-27T11:52:09.900Z,82.35
2023-01-27T11:53:10.102Z,82.76
2023-01-27T11:54:10.303Z,82.56
2023-01-27T11:55:10.523Z,83.18
2023-01-27T11:56:10.851Z,83.07
2023-01-27T11:57:10.938Z,83.28
2023-01-27T11:58:11.163Z,82.35
2023-01-27T11:59:11.420Z,82.66
2023-01-27T12:00:12.125Z,82.56
2023-01-27T12:01:11.999Z,83.39
2023-01-27T12:02:12.134Z,83.90
2023-01-27T12:03:12.377Z,83.49
2023-01-27T12:04:12.650Z,83.90
2023-01-27T12:05:12.861Z,83.90
2023-01-27T12:06:13.262Z,84.52
2023-01-27T12:07:13.350Z,82.87
2023-01-27T12:08:13.591Z,83.39
2023-01-27T12:09:13.825Z,83.07
2023-01-27T12:10:14.433Z,83.63
2023-01-27T12:11:14.427Z,84.97
2023-01-27T12:12:14.557Z,83.42
2023-01-27T12:13:14.805Z,84.77
2023-01-27T12:14:15.076Z,83.94
2023-01-27T12:15:15.295Z,84.25
2023-01-27T12:16:15.660Z,83.46
2023-01-27T12:17:15.780Z,83.11
2023-01-27T12:18:16.015Z,83.87
2023-01-27T12:19:16.276Z,83.73
2023-01-27T12:20:16.597Z,83.73
2023-01-27T12:21:16.675Z,83.73
2023-01-27T12:22:16.907Z,83.01
2023-01-27T12:23:17.086Z,84.05
2023-01-27T12:24:17.306Z,83.73
2023-01-27T12:25:17.507Z,84.77
2023-01-27T12:26:17.722Z,83.36
2023-01-27T12:27:17.989Z,83.94
2023-01-27T12:28:18.170Z,83.63
2023-01-27T12:29:18.397Z,84.60
2023-01-27T12:30:18.584Z,82.80
2023-01-27T12:31:18.929Z,83.63
2023-01-27T12:32:19.033Z,83.73
2023-01-27T12:33:19.218Z,83.73
2023-01-27T12:34:19.464Z,82.50
2023-01-27T12:35:19.702Z,83.67
2023-01-27T12:36:19.943Z,83.46
2023-01-27T12:37:20.212Z,83.67
2023-01-27T12:38:20.443Z,83.15
2023-01-27T12:39:20.677Z,83.77
2023-01-27T12:40:20.961Z,84.19
2023-01-27T12:41:21.178Z,83.98
2023-01-27T12:42:21.441Z,83.36
2023-01-27T12:43:21.719Z,83.98
2023-01-27T12:44:21.970Z,82.95
2023-01-27T12:45:22.209Z,81.49
2023-01-27T12:46:22.505Z,82.22
2023-01-27T12:47:22.691Z,82.05
2023-01-27T12:48:23.043Z,83.50
2023-01-27T12:49:23.171Z,82.88
2023-01-27T12:50:23.607Z,83.25
2023-01-27T12:51:23.638Z,82.53
2023-01-27T12:52:23.879Z,82.53
2023-01-27T12:53:26.256Z,83.36
2023-01-27T12:54:24.336Z,81.49
2023-01-27T12:55:24.769Z,80.91